Time;durP1;ratioP1;P1;durP2;ratioP2;P2;SDS_P1;SDS_P2;PMS_P1;PMS_P2;Temp;Humidity;BMP_temperature;BMP_pressure;BME280_temperature;BME280_humidity;BME280_pressure;Samples;Min_cycle;Max_cycle;Signal;HPM_P1;HPM_P2
2023/12/19 00:02:27;;;;;;;13.40;8.30;;;;;;;7.40;86.03;100639.52;130483;1266;108462;-86
2023/12/19 00:05:32;;;;;;;11.30;7.20;;;;;;;7.37;85.86;100631.44;130704;1266;108694;-85
2023/12/19 00:08:38;;;;;;;9.20;6.20;;;;;;;7.36;85.68;100622.91;130298;1266;106993;-86
2023/12/19 00:11:44;;;;;;;10.90;7.30;;;;;;;7.35;85.60;100612.28;130438;1268;107542;-85
2023/12/19 00:14:49;;;;;;;10.90;7.20;;;;;;;7.39;85.64;100617.85;130356;1264;107851;-84
2023/12/19 00:17:55;;;;;;;10.70;7.60;;;;;;;7.44;85.35;100620.11;130391;1270;107834;-85
2023/12/19 00:21:01;;;;;;;10.40;6.80;;;;;;;7.47;85.15;100608.32;130311;1266;108702;-86
2023/12/19 00:24:07;;;;;;;12.00;7.40;;;;;;;7.47;85.09;100607.27;130373;1266;107558;-85
2023/12/19 00:27:12;;;;;;;13.00;7.10;;;;;;;7.47;84.73;100599.32;130365;1273;108497;-87
2023/12/19 00:30:18;;;;;;;10.90;7.00;;;;;;;7.44;84.48;100605.23;130331;1264;107497;-86
2023/12/19 00:33:24;;;;;;;12.80;7.70;;;;;;;7.41;84.17;100616.64;130408;1264;108709;-87
2023/12/19 00:36:30;;;;;;;12.20;7.40;;;;;;;7.39;84.04;100622.45;130307;1266;106826;-87
2023/12/19 00:39:37;;;;;;;11.80;7.70;;;;;;;7.35;83.87;100619.58;130296;1264;107030;-87
2023/12/19 00:42:43;;;;;;;13.40;7.40;;;;;;;7.30;83.85;100608.83;130392;1266;107008;-86
2023/12/19 00:45:50;;;;;;;12.30;7.50;;;;;;;7.24;83.39;100608.43;130394;1263;108868;-84
2023/12/19 00:48:56;;;;;;;12.80;7.80;;;;;;;7.17;83.33;100606.13;130404;1266;108513;-87
2023/12/19 00:52:02;;;;;;;10.40;7.00;;;;;;;7.11;83.27;100608.06;130364;1268;107706;-87
2023/12/19 00:55:09;;;;;;;8.50;5.80;;;;;;;7.05;83.22;100601.55;130404;1264;108766;-87
2023/12/19 00:58:14;;;;;;;10.00;5.60;;;;;;;7.02;83.17;100588.95;130364;1260;107319;-84
2023/12/19 01:01:24;;;;;;;10.90;5.80;;;;;;;7.00;82.96;100588.33;130362;1261;107485;-85
2023/12/19 01:04:30;;;;;;;8.70;5.60;;;;;;;7.02;82.99;100573.91;130386;1267;106842;-85
2023/12/19 01:07:36;;;;;;;9.10;5.90;;;;;;;7.07;82.29;100582.86;130512;1261;107668;-85
2023/12/19 01:10:41;;;;;;;12.00;6.70;;;;;;;7.13;82.28;100582.27;130397;1264;107755;-85
2023/12/19 01:13:47;;;;;;;10.90;6.60;;;;;;;7.14;82.61;100578.10;130395;1264;109105;-85
2023/12/19 01:16:53;;;;;;;12.60;7.40;;;;;;;7.17;82.27;100587.42;130406;1265;108756;-85
2023/12/19 01:19:58;;;;;;;12.20;6.50;;;;;;;7.18;81.69;100597.73;130467;1260;108653;-85
2023/12/19 01:23:04;;;;;;;11.80;7.10;;;;;;;7.18;81.67;100597.92;130339;1265;108718;-87
2023/12/19 01:26:09;;;;;;;10.00;6.20;;;;;;;7.18;81.66;100597.05;130360;1260;108582;-87
2023/12/19 01:29:15;;;;;;;10.50;6.60;;;;;;;7.18;81.69;100596.71;130384;1261;107732;-86
2023/12/19 01:32:21;;;;;;;10.90;6.50;;;;;;;7.19;81.58;100583.52;130345;1264;108784;-86
2023/12/19 01:35:26;;;;;;;11.80;7.20;;;;;;;7.20;81.37;100571.21;130333;1263;107624;-87
2023/12/19 01:38:32;;;;;;;9.90;7.00;;;;;;;7.21;81.17;100584.38;130380;1260;106764;-86
2023/12/19 01:41:37;;;;;;;10.50;6.70;;;;;;;7.21;81.13;100572.75;130433;1267;108715;-87
2023/12/19 01:44:45;;;;;;;9.70;6.50;;;;;;;7.20;80.92;100567.55;130330;1261;107513;-86
2023/12/19 01:47:51;;;;;;;10.00;6.90;;;;;;;7.16;80.80;100556.52;130477;1264;107362;-86
2023/12/19 01:50:58;;;;;;;11.00;6.90;;;;;;;7.10;80.52;100550.44;130378;1264;106792;-86
2023/12/19 01:54:04;;;;;;;12.60;8.20;;;;;;;7.02;80.44;100543.45;130391;1267;107805;-86
2023/12/19 01:57:11;;;;;;;16.70;8.50;;;;;;;6.96;80.17;100543.44;130338;1260;106756;-86
2023/12/19 02:00:17;;;;;;;12.10;7.50;;;;;;;6.89;79.90;100533.76;130377;1260;108664;-86
2023/12/19 02:03:23;;;;;;;12.10;7.80;;;;;;;6.83;79.25;100530.28;130405;1261;108692;-86
2023/12/19 02:06:31;;;;;;;11.70;7.20;;;;;;;6.78;79.81;100534.96;130319;1274;106767;-86
2023/12/19 02:09:36;;;;;;;12.10;7.00;;;;;;;6.74;79.20;100533.02;130368;1266;108688;-85
2023/12/19 02:12:43;;;;;;;11.60;7.10;;;;;;;6.69;79.50;100518.30;130307;1260;106537;-88
2023/12/19 02:15:49;;;;;;;14.30;8.30;;;;;;;6.69;79.11;100511.64;130374;1260;107621;-87
2023/12/19 02:19:05;;;;;;;11.50;6.90;;;;;;;6.66;78.92;100503.69;130322;1261;107396;-85
2023/12/19 02:22:10;;;;;;;10.20;7.10;;;;;;;6.65;78.90;100493.55;130335;1274;107523;-86
2023/12/19 02:25:17;;;;;;;12.50;7.60;;;;;;;6.64;78.31;100496.81;130292;1261;106663;-86
2023/12/19 02:28:24;;;;;;;9.50;6.70;;;;;;;6.63;78.18;100493.31;130351;1265;107271;-86
2023/12/19 02:31:29;;;;;;;12.50;6.90;;;;;;;6.63;77.29;100498.81;130279;1261;107537;-86
2023/12/19 02:34:35;;;;;;;10.90;7.10;;;;;;;6.64;77.41;100504.42;130374;1262;107533;-86
2023/12/19 02:37:41;;;;;;;12.40;6.30;;;;;;;6.66;77.79;100496.14;130413;1266;106715;-85
2023/12/19 02:40:47;;;;;;;9.70;6.50;;;;;;;6.66;77.47;100489.92;130421;1270;107673;-87
2023/12/19 02:43:53;;;;;;;8.70;5.80;;;;;;;6.66;77.51;100482.16;130389;1260;106157;-85
2023/12/19 02:46:58;;;;;;;11.00;6.50;;;;;;;6.63;77.26;100474.39;130381;1262;107783;-84
2023/12/19 02:50:08;;;;;;;9.30;6.20;;;;;;;6.64;76.88;100480.56;130343;1261;108686;-85
2023/12/19 02:53:14;;;;;;;9.80;6.00;;;;;;;6.61;76.92;100486.81;130420;1264;108624;-85
2023/12/19 02:56:19;;;;;;;11.10;6.40;;;;;;;6.59;76.80;100492.80;130422;1260;108699;-85
2023/12/19 02:59:25;;;;;;;9.30;5.70;;;;;;;6.57;76.34;100478.81;130307;1264;107947;-85
2023/12/19 03:02:30;;;;;;;10.40;6.30;;;;;;;6.56;76.47;100472.84;130372;1261;106136;-85
2023/12/19 03:05:36;;;;;;;9.70;5.80;;;;;;;6.57;76.66;100460.48;130358;1264;107819;-85
2023/12/19 03:08:46;;;;;;;10.10;6.20;;;;;;;6.55;76.56;100446.61;130295;1261;107842;-85
2023/12/19 03:12:03;;;;;;;10.20;6.20;;;;;;;6.53;76.38;100445.92;130361;1260;107808;-85
2023/12/19 03:15:10;;;;;;;8.60;6.00;;;;;;;6.48;76.05;100429.47;130229;1264;107602;-87
2023/12/19 03:18:16;;;;;;;10.20;6.20;;;;;;;6.45;76.11;100437.18;130158;1260;108793;-88
2023/12/19 03:21:21;;;;;;;11.20;6.10;;;;;;;6.42;75.98;100439.52;130196;1264;106257;-85
2023/12/19 03:24:28;;;;;;;10.90;6.40;;;;;;;6.40;75.74;100440.77;130329;1261;108722;-86
2023/12/19 03:27:34;;;;;;;11.10;6.80;;;;;;;6.37;75.42;100447.19;130225;1261;107975;-85
2023/12/19 03:30:39;;;;;;;12.00;7.20;;;;;;;6.34;75.43;100449.86;130328;1261;106896;-86
2023/12/19 03:33:45;;;;;;;73.10;25.40;;;;;;;6.32;75.71;100434.14;130371;1260;106575;-87
2023/12/19 03:36:51;;;;;;;34.70;15.40;;;;;;;6.30;75.54;100430.76;130371;1260;108621;-86
2023/12/19 03:39:56;;;;;;;14.60;9.40;;;;;;;6.28;75.44;100442.90;130573;1260;108685;-84
2023/12/19 03:43:02;;;;;;;12.90;8.10;;;;;;;6.28;74.85;100454.24;130356;1267;107663;-93
2023/12/19 03:46:08;;;;;;;12.40;7.60;;;;;;;6.25;74.55;100435.00;130285;1261;107910;-91
2023/12/19 03:49:13;;;;;;;18.00;10.90;;;;;;;6.24;74.58;100415.27;130400;1260;106619;-88
2023/12/19 03:52:20;;;;;;;280.80;119.20;;;;;;;6.25;74.58;100413.42;130339;1277;107481;-87
2023/12/19 03:55:26;;;;;;;396.70;177.60;;;;;;;6.25;74.40;100426.16;131108;1260;109546;-85
2023/12/19 03:58:32;;;;;;;464.90;229.80;;;;;;;6.25;74.10;100427.58;131534;1260;106286;-85
2023/12/19 04:01:51;;;;;;;210.40;90.80;;;;;;;6.25;74.18;100432.53;131475;1264;107049;-85
2023/12/19 04:04:57;;;;;;;139.00;76.60;;;;;;;6.26;74.28;100419.91;131490;1260;108031;-85
2023/12/19 04:08:03;;;;;;;76.10;39.10;;;;;;;6.28;74.13;100408.30;131555;1264;107878;-85
2023/12/19 04:11:08;;;;;;;33.70;16.80;;;;;;;6.31;73.68;100404.16;131803;1262;107433;-85
2023/12/19 04:14:14;;;;;;;31.60;19.50;;;;;;;6.33;73.69;100395.21;131747;1261;107319;-85
2023/12/19 04:17:19;;;;;;;67.50;38.00;;;;;;;6.35;73.99;100398.06;131703;1260;108739;-85
2023/12/19 04:20:25;;;;;;;140.10;64.30;;;;;;;6.37;73.86;100401.05;131512;1261;107792;-85
2023/12/19 04:23:30;;;;;;;44.90;22.60;;;;;;;6.39;73.07;100406.52;131563;1261;108295;-85
2023/12/19 04:26:39;;;;;;;19.20;10.60;;;;;;;6.42;73.31;100401.14;131596;1260;107090;-85
2023/12/19 04:29:45;;;;;;;222.50;129.90;;;;;;;6.46;73.35;100399.11;131537;1261;107595;-85
2023/12/19 04:32:52;;;;;;;353.10;190.00;;;;;;;6.48;72.65;100402.45;131749;1264;107704;-86
2023/12/19 04:35:57;;;;;;;166.60;69.20;;;;;;;6.48;72.43;100421.92;131332;1261;107078;-85
2023/12/19 04:39:03;;;;;;;284.40;133.40;;;;;;;6.45;72.15;100428.63;131327;1260;108679;-86
2023/12/19 04:42:09;;;;;;;96.70;43.90;;;;;;;6.46;72.54;100423.65;131587;1260;107546;-85
2023/12/19 04:45:15;;;;;;;36.70;17.10;;;;;;;6.47;72.30;100419.13;131475;1260;106601;-85
2023/12/19 04:48:20;;;;;;;23.70;13.70;;;;;;;6.48;72.16;100418.21;131340;1260;107744;-85
2023/12/19 04:51:26;;;;;;;16.70;9.80;;;;;;;6.47;72.12;100413.30;131644;1264;107619;-85
2023/12/19 04:54:32;;;;;;;14.00;8.60;;;;;;;6.48;72.22;100402.27;131747;1260;106633;-84
2023/12/19 04:57:37;;;;;;;15.20;11.60;;;;;;;6.50;71.99;100397.14;131620;1260;107720;-84
2023/12/19 05:00:43;;;;;;;11.40;8.60;;;;;;;6.54;71.96;100395.48;131710;1260;107835;-85
2023/12/19 05:03:48;;;;;;;10.00;6.60;;;;;;;6.56;71.56;100395.45;131736;1263;107768;-85
2023/12/19 05:06:55;;;;;;;9.60;6.40;;;;;;;6.59;71.64;100384.59;131285;1260;107813;-84
2023/12/19 05:10:02;;;;;;;13.60;7.40;;;;;;;6.62;71.45;100392.14;131520;1264;106508;-85
2023/12/19 05:13:07;;;;;;;9.40;6.10;;;;;;;6.65;71.62;100383.94;131707;1262;106739;-85
2023/12/19 05:16:14;;;;;;;14.30;9.60;;;;;;;6.68;71.49;100393.93;131815;1261;108166;-85
2023/12/19 05:19:20;;;;;;;17.10;11.70;;;;;;;6.73;71.07;100391.64;131752;1267;108079;-85
2023/12/19 05:22:25;;;;;;;132.70;58.90;;;;;;;6.77;71.14;100385.30;131880;1263;108497;-85
2023/12/19 05:25:31;;;;;;;340.40;130.40;;;;;;;6.81;70.89;100392.90;131781;1261;107727;-85
2023/12/19 05:28:39;;;;;;;515.10;240.20;;;;;;;6.85;70.98;100403.23;131708;1261;106470;-85
2023/12/19 05:31:47;;;;;;;172.70;72.60;;;;;;;6.88;70.75;100400.11;131795;1260;108721;-85
2023/12/19 05:34:53;;;;;;;220.70;112.30;;;;;;;6.91;71.11;100394.39;131793;1260;108794;-84
2023/12/19 05:37:58;;;;;;;78.60;36.80;;;;;;;6.96;70.31;100397.50;131694;1261;108016;-84
2023/12/19 05:41:05;;;;;;;41.30;23.30;;;;;;;6.99;69.78;100387.22;131689;1260;108688;-85
2023/12/19 05:44:11;;;;;;;21.40;12.80;;;;;;;7.00;70.26;100373.30;131700;1273;107676;-85
2023/12/19 05:47:17;;;;;;;16.30;9.20;;;;;;;7.02;70.31;100356.30;131764;1260;106639;-85
2023/12/19 05:50:23;;;;;;;12.20;8.10;;;;;;;7.05;69.33;100358.06;131710;1260;106426;-85
2023/12/19 05:53:29;;;;;;;12.00;7.20;;;;;;;7.06;69.06;100352.27;131728;1263;108178;-85
2023/12/19 05:56:35;;;;;;;13.30;8.40;;;;;;;7.09;70.11;100355.60;131746;1260;107526;-87
2023/12/19 05:59:41;;;;;;;24.60;18.10;;;;;;;7.11;69.43;100352.23;131842;1260;107419;-85
2023/12/19 06:02:49;;;;;;;30.30;20.00;;;;;;;7.12;69.03;100355.90;131735;1261;107567;-85
2023/12/19 06:05:54;;;;;;;32.50;21.00;;;;;;;7.13;69.65;100353.87;131775;1264;107922;-85
2023/12/19 06:09:00;;;;;;;23.00;15.40;;;;;;;7.15;69.43;100361.98;131538;1260;107664;-85
2023/12/19 06:12:07;;;;;;;572.30;289.60;;;;;;;7.16;69.23;100352.73;131698;1264;108453;-84
2023/12/19 06:15:15;;;;;;;402.20;158.30;;;;;;;7.18;69.14;100350.45;131674;1261;107738;-87
2023/12/19 06:18:21;;;;;;;354.50;125.40;;;;;;;7.19;69.40;100346.80;131608;1260;107267;-83
2023/12/19 06:21:27;;;;;;;398.30;133.30;;;;;;;7.20;69.18;100341.39;130322;1261;108787;-83
2023/12/19 06:24:32;;;;;;;239.90;75.50;;;;;;;7.20;68.69;100357.48;130335;1264;107139;-82
2023/12/19 06:27:40;;;;;;;611.50;239.70;;;;;;;7.20;68.42;100368.31;130443;1264;107668;-83
2023/12/19 06:30:46;;;;;;;485.10;181.40;;;;;;;7.18;68.25;100382.94;130372;1264;108513;-82
2023/12/19 06:33:51;;;;;;;359.50;109.40;;;;;;;7.16;68.56;100387.58;130475;1260;108510;-83
2023/12/19 06:36:57;;;;;;;809.00;313.70;;;;;;;7.13;68.22;100382.51;130146;1276;108807;-83
2023/12/19 06:40:05;;;;;;;412.10;119.40;;;;;;;7.14;69.01;100378.41;130379;1260;108498;-82
2023/12/19 06:43:11;;;;;;;272.60;81.90;;;;;;;7.15;67.93;100369.23;130256;1264;107268;-83
2023/12/19 06:46:18;;;;;;;452.30;137.60;;;;;;;7.11;67.85;100370.70;130311;1264;107990;-87
2023/12/19 06:49:24;;;;;;;251.20;69.20;;;;;;;7.09;68.61;100362.30;130433;1264;106240;-84
2023/12/19 06:52:30;;;;;;;429.20;128.90;;;;;;;7.11;68.58;100360.06;130410;1264;107500;-83
2023/12/19 06:55:36;;;;;;;399.40;122.80;;;;;;;7.13;68.59;100363.92;130351;1261;106288;-86
2023/12/19 06:58:41;;;;;;;257.40;75.90;;;;;;;7.16;68.89;100363.34;130460;1260;109194;-86
2023/12/19 07:01:47;;;;;;;163.30;50.60;;;;;;;7.19;68.95;100355.48;130440;1264;109358;-85
2023/12/19 07:04:53;;;;;;;732.40;280.70;;;;;;;7.23;69.12;100361.09;130354;1261;107714;-85
2023/12/19 07:08:00;;;;;;;992.90;421.00;;;;;;;7.27;68.69;100359.36;130430;1264;108550;-85
2023/12/19 07:11:06;;;;;;;471.10;186.70;;;;;;;7.33;69.24;100356.77;130433;1260;107822;-83
2023/12/19 07:14:16;;;;;;;346.90;170.20;;;;;;;7.37;69.38;100353.91;130365;1261;107707;-85
2023/12/19 07:17:23;;;;;;;211.90;90.40;;;;;;;7.43;68.75;100356.27;130203;1260;107135;-85
2023/12/19 07:20:28;;;;;;;58.30;30.40;;;;;;;7.45;68.94;100354.86;130388;1259;106557;-84
2023/12/19 07:23:34;;;;;;;52.60;31.00;;;;;;;7.49;68.73;100356.16;130367;1260;106613;-84
2023/12/19 07:26:39;;;;;;;43.60;24.70;;;;;;;7.51;68.58;100356.00;130398;1276;107820;-85
2023/12/19 07:29:45;;;;;;;78.60;48.70;;;;;;;7.53;68.58;100357.60;130292;1261;105701;-83
2023/12/19 07:32:53;;;;;;;62.70;32.90;;;;;;;7.55;68.80;100370.66;130477;1262;108696;-83
2023/12/19 07:35:59;;;;;;;26.20;12.50;;;;;;;7.55;68.43;100371.34;130386;1260;108565;-81
2023/12/19 07:39:05;;;;;;;23.20;10.20;;;;;;;7.56;68.56;100376.05;130406;1261;107775;-80
2023/12/19 07:42:10;;;;;;;16.00;7.70;;;;;;;7.58;68.34;100381.19;130437;1264;108784;-80
2023/12/19 07:45:18;;;;;;;11.80;6.40;;;;;;;7.59;68.35;100375.61;130279;1261;108823;-81
2023/12/19 07:48:24;;;;;;;14.70;7.10;;;;;;;7.59;67.93;100363.90;130337;1264;107041;-85
2023/12/19 07:51:29;;;;;;;11.60;5.80;;;;;;;7.63;68.82;100357.02;130343;1264;108561;-81
2023/12/19 07:54:36;;;;;;;14.00;5.70;;;;;;;7.69;68.08;100351.07;130335;1261;108694;-79
2023/12/19 07:57:41;;;;;;;12.90;6.70;;;;;;;7.70;68.59;100367.09;130164;1275;106594;-78
2023/12/19 08:00:48;;;;;;;12.80;7.00;;;;;;;7.74;68.90;100360.91;130114;1260;108741;-80
2023/12/19 08:03:54;;;;;;;9.70;5.60;;;;;;;7.78;68.71;100361.41;130314;1267;108438;-79
2023/12/19 08:06:59;;;;;;;9.30;5.40;;;;;;;7.81;69.12;100356.40;130154;1264;108665;-80
2023/12/19 08:10:07;;;;;;;11.10;5.90;;;;;;;7.84;69.27;100355.25;130158;1261;107612;-81
2023/12/19 08:13:12;;;;;;;8.60;6.00;;;;;;;7.89;69.36;100347.06;130132;1266;107295;-82
2023/12/19 08:16:21;;;;;;;10.10;5.60;;;;;;;7.91;69.58;100342.08;130173;1260;106773;-80
2023/12/19 08:19:27;;;;;;;10.10;5.70;;;;;;;7.94;69.75;100339.14;130074;1266;109116;-80
2023/12/19 08:22:32;;;;;;;8.80;5.70;;;;;;;7.98;69.90;100348.04;130151;1264;107658;-81
2023/12/19 08:25:41;;;;;;;8.00;5.60;;;;;;;8.03;70.09;100353.45;130161;1260;107784;-80
2023/12/19 08:28:47;;;;;;;9.50;6.30;;;;;;;8.02;69.71;100357.37;130190;1261;107429;-81
2023/12/19 08:31:52;;;;;;;105.90;53.10;;;;;;;8.03;70.22;100356.91;130452;1260;108582;-82
2023/12/19 08:34:59;;;;;;;265.70;105.20;;;;;;;8.09;70.39;100345.77;130373;1261;107788;-82
2023/12/19 08:38:04;;;;;;;310.10;125.30;;;;;;;8.17;70.34;100337.34;130359;1264;108743;-81
2023/12/19 08:41:10;;;;;;;226.20;78.20;;;;;;;8.21;69.93;100349.85;130338;1261;107735;-80
2023/12/19 08:44:16;;;;;;;118.00;40.60;;;;;;;8.16;70.11;100350.31;130373;1260;106677;-82
2023/12/19 08:47:21;;;;;;;398.80;137.40;;;;;;;8.24;69.98;100367.38;130332;1264;108412;-81
2023/12/19 08:50:27;;;;;;;348.90;128.50;;;;;;;8.23;69.82;100364.70;130393;1261;107824;-81
2023/12/19 08:53:33;;;;;;;87.40;30.60;;;;;;;8.26;70.38;100358.33;130379;1263;107243;-82
2023/12/19 08:56:38;;;;;;;422.40;148.60;;;;;;;8.27;70.33;100356.45;130388;1261;108151;-82
2023/12/19 08:59:44;;;;;;;384.60;129.60;;;;;;;8.30;70.51;100355.66;130383;1261;106438;-82
2023/12/19 09:02:50;;;;;;;312.60;109.90;;;;;;;8.36;70.51;100348.25;130380;1264;108086;-81
2023/12/19 09:05:56;;;;;;;253.10;96.70;;;;;;;8.37;70.53;100330.27;130386;1260;108657;-82
2023/12/19 09:09:01;;;;;;;609.00;325.10;;;;;;;8.46;70.83;100321.31;130382;1264;108872;-82
2023/12/19 09:12:07;;;;;;;986.70;438.50;;;;;;;8.50;70.73;100312.97;130446;1261;106761;-81
2023/12/19 09:15:13;;;;;;;386.70;124.00;;;;;;;8.57;71.17;100312.20;130384;1260;107644;-82
2023/12/19 09:18:18;;;;;;;300.80;142.10;;;;;;;8.67;71.21;100308.64;130477;1261;108749;-82
2023/12/19 09:21:24;;;;;;;196.90;93.60;;;;;;;8.75;71.47;100303.48;130370;1260;107916;-82
2023/12/19 09:24:31;;;;;;;216.30;106.00;;;;;;;8.78;71.71;100283.27;130379;1260;107871;-82
2023/12/19 09:27:36;;;;;;;36.20;19.40;;;;;;;8.79;72.00;100279.09;130337;1261;106948;-81
2023/12/19 09:30:42;;;;;;;33.60;18.90;;;;;;;8.84;72.33;100275.82;130360;1261;108140;-82
2023/12/19 09:33:48;;;;;;;82.20;47.50;;;;;;;8.91;72.63;100279.48;130423;1265;107547;-82
2023/12/19 09:36:53;;;;;;;80.40;48.40;;;;;;;8.98;72.83;100281.23;130437;1264;106784;-81
2023/12/19 09:39:59;;;;;;;42.80;25.60;;;;;;;9.04;72.54;100279.83;130355;1260;106689;-82
2023/12/19 09:43:05;;;;;;;26.60;18.00;;;;;;;9.04;72.82;100280.94;130416;1263;108640;-82
2023/12/19 09:46:13;;;;;;;18.70;12.60;;;;;;;9.10;72.77;100281.61;130631;1260;107212;-82
2023/12/19 09:49:23;;;;;;;79.80;57.20;;;;;;;9.11;72.95;100277.83;130528;1260;106626;-81
2023/12/19 09:52:30;;;;;;;38.90;26.60;;;;;;;9.13;73.09;100271.07;130480;1261;107691;-82
2023/12/19 09:55:42;;;;;;;18.00;12.50;;;;;;;9.14;72.78;100259.58;130465;1263;108652;-82
2023/12/19 09:58:49;;;;;;;29.70;23.80;;;;;;;9.17;73.29;100255.16;130370;1263;106435;-82
2023/12/19 10:01:55;;;;;;;16.10;12.60;;;;;;;9.25;73.17;100249.83;130515;1260;108955;-81
2023/12/19 10:05:00;;;;;;;13.70;9.90;;;;;;;9.32;72.95;100250.08;130275;1261;106414;-82
2023/12/19 10:08:07;;;;;;;14.00;8.80;;;;;;;9.31;72.67;100240.71;130418;1264;107852;-83
2023/12/19 10:11:18;;;;;;;27.50;17.90;;;;;;;9.30;72.71;100235.02;130217;1263;107667;-82
2023/12/19 10:14:23;;;;;;;28.80;17.90;;;;;;;9.32;73.10;100227.71;130395;1264;108553;-82
2023/12/19 10:17:31;;;;;;;28.70;19.70;;;;;;;9.32;72.73;100228.21;130436;1263;108750;-82
2023/12/19 10:20:40;;;;;;;20.10;13.70;;;;;;;9.32;73.05;100228.55;130577;1261;108496;-84
2023/12/19 10:23:46;;;;;;;58.10;38.20;;;;;;;9.35;73.05;100239.16;130735;1263;108688;-82
2023/12/19 10:27:01;;;;;;;135.00;86.90;;;;;;;9.29;72.88;100255.84;130707;1262;106738;-84
2023/12/19 10:30:20;;;;;;;70.40;43.00;;;;;;;9.22;72.68;100250.28;130680;1260;108533;-82
2023/12/19 10:33:26;;;;;;;114.00;67.30;;;;;;;9.18;72.94;100243.73;130723;1263;106685;-82
2023/12/19 10:36:33;;;;;;;91.90;52.70;;;;;;;9.18;72.88;100236.29;130604;1264;107389;-82
2023/12/19 10:39:38;;;;;;;42.00;24.40;;;;;;;9.19;72.83;100233.21;130497;1264;108484;-83
2023/12/19 10:42:44;;;;;;;35.50;21.50;;;;;;;9.22;72.81;100235.54;130558;1259;108834;-82
2023/12/19 10:45:52;;;;;;;82.20;48.20;;;;;;;9.29;72.94;100233.19;130597;1263;106610;-85
2023/12/19 10:49:03;;;;;;;71.60;44.60;;;;;;;9.33;72.48;100213.40;130667;1264;107814;-82
2023/12/19 10:52:13;;;;;;;45.50;29.90;;;;;;;9.35;72.65;100205.54;130475;1264;109561;-84
2023/12/19 10:55:23;;;;;;;36.30;24.00;;;;;;;9.43;72.20;100192.08;130590;1264;106028;-82
2023/12/19 10:58:29;;;;;;;24.80;17.10;;;;;;;9.49;72.60;100182.61;130566;1261;108883;-82
2023/12/19 11:01:39;;;;;;;31.30;16.70;;;;;;;9.61;72.52;100179.34;130613;1264;107840;-83
2023/12/19 11:04:54;;;;;;;17.80;12.10;;;;;;;9.73;72.71;100171.25;130527;1261;107912;-82
2023/12/19 11:08:04;;;;;;;13.00;7.80;;;;;;;9.87;71.65;100164.69;130441;1260;107522;-82
2023/12/19 11:11:19;;;;;;;37.00;23.90;;;;;;;9.97;71.79;100152.37;130425;1261;107784;-83
2023/12/19 11:14:26;;;;;;;28.00;16.50;;;;;;;10.06;71.83;100147.73;130446;1261;107769;-82
2023/12/19 11:17:36;;;;;;;17.10;11.00;;;;;;;10.08;71.56;100136.85;130573;1261;106485;-82
2023/12/19 11:20:46;;;;;;;20.60;12.80;;;;;;;10.06;71.22;100125.04;130465;1261;108434;-82
2023/12/19 11:24:02;;;;;;;28.30;18.20;;;;;;;9.99;70.87;100118.55;130504;1264;107632;-82
2023/12/19 11:27:17;;;;;;;14.40;9.90;;;;;;;9.98;71.33;100107.79;130406;1261;110778;-82
2023/12/19 11:30:36;;;;;;;11.00;7.80;;;;;;;10.01;70.97;100100.38;130577;1260;108650;-83
2023/12/19 11:33:42;;;;;;;11.00;7.40;;;;;;;10.03;71.15;100097.19;130541;1261;109069;-82
2023/12/19 11:36:48;;;;;;;16.20;8.00;;;;;;;10.03;70.97;100095.72;130392;1263;136802;-82
2023/12/19 11:39:54;;;;;;;19.70;9.30;;;;;;;10.05;71.16;100091.64;130585;1264;107712;-82
2023/12/19 11:42:59;;;;;;;118.70;58.00;;;;;;;10.04;70.25;100082.84;130663;1260;107707;-82
2023/12/19 11:46:18;;;;;;;122.50;54.20;;;;;;;10.02;70.68;100081.14;130542;1261;107699;-82
2023/12/19 11:49:40;;;;;;;197.60;81.20;;;;;;;10.01;70.88;100078.95;130467;1261;109258;-80
2023/12/19 11:52:53;;;;;;;163.30;64.30;;;;;;;10.01;70.46;100076.38;130204;1264;106790;-83
2023/12/19 11:56:08;;;;;;;84.30;34.70;;;;;;;9.96;70.75;100084.16;130401;1264;107493;-82
2023/12/19 11:59:15;;;;;;;313.30;118.30;;;;;;;9.93;70.67;100085.04;130405;1261;107317;-90
2023/12/19 12:02:32;;;;;;;133.40;51.00;;;;;;;9.90;70.39;100079.48;130407;1264;108673;-86
2023/12/19 12:05:37;;;;;;;686.10;302.70;;;;;;;9.85;70.44;100076.27;130414;1262;107204;-91
2023/12/19 12:08:52;;;;;;;210.30;76.70;;;;;;;9.78;70.13;100073.91;130411;1261;106471;-90
2023/12/19 12:11:57;;;;;;;165.40;81.80;;;;;;;9.75;70.27;100067.13;130385;1265;107157;-88
2023/12/19 12:15:11;;;;;;;128.00;64.40;;;;;;;9.71;70.01;100062.15;130439;1264;106910;-92
2023/12/19 12:18:20;;;;;;;118.30;53.90;;;;;;;9.67;69.88;100055.84;130479;1261;108598;-92
2023/12/19 12:21:26;;;;;;;682.00;407.00;;;;;;;9.64;70.34;100053.83;130416;1264;105871;-89
2023/12/19 12:24:31;;;;;;;191.10;80.90;;;;;;;9.61;69.91;100053.77;130402;1265;107680;-85
2023/12/19 12:27:37;;;;;;;255.70;128.00;;;;;;;9.57;69.58;100047.90;130338;1261;108569;-82
2023/12/19 12:30:43;;;;;;;155.20;81.80;;;;;;;9.53;69.92;100040.27;130376;1261;106663;-83
2023/12/19 12:33:49;;;;;;;114.70;64.90;;;;;;;9.51;70.06;100037.46;130484;1261;107328;-86
2023/12/19 12:36:54;;;;;;;169.80;108.20;;;;;;;9.51;70.13;100030.80;130431;1261;107849;-88
2023/12/19 12:40:05;;;;;;;38.00;24.00;;;;;;;9.49;70.21;100024.04;130428;1260;107830;-87
2023/12/19 12:43:35;;;;;;;23.60;15.80;;;;;;;9.46;70.45;100023.96;130455;1261;108530;-86
2023/12/19 12:46:47;;;;;;;19.50;12.60;;;;;;;9.42;70.46;100024.13;130487;1264;106615;-81
2023/12/19 12:50:02;;;;;;;22.40;14.30;;;;;;;9.35;70.56;100027.84;130476;1260;106595;-93
2023/12/19 12:53:14;;;;;;;17.40;10.40;;;;;;;9.28;70.29;100032.66;130478;1264;107539;-90
2023/12/19 12:56:20;;;;;;;13.20;7.90;;;;;;;9.20;70.93;100022.56;130366;1261;106557;-88
2023/12/19 12:59:27;;;;;;;30.30;19.40;;;;;;;9.20;71.00;100012.32;130398;1264;105679;-90
2023/12/19 13:02:35;;;;;;;54.20;29.00;;;;;;;9.20;70.74;100005.79;130430;1261;107023;-90
2023/12/19 13:05:42;;;;;;;211.90;97.90;;;;;;;9.15;70.77;100005.55;130518;1264;107598;-92
2023/12/19 13:08:48;;;;;;;299.40;128.00;;;;;;;9.11;71.01;99994.55;130451;1261;108372;-92
2023/12/19 13:11:57;;;;;;;130.60;58.40;;;;;;;9.09;71.14;99985.35;130446;1261;108567;-92
2023/12/19 13:15:03;;;;;;;66.70;34.00;;;;;;;9.07;70.77;99977.40;130468;1264;107565;-92
2023/12/19 13:18:09;;;;;;;145.10;73.30;;;;;;;9.04;71.05;99965.40;130371;1264;107995;-92
2023/12/19 13:21:15;;;;;;;62.30;30.90;;;;;;;8.96;71.19;99945.62;130473;1265;108520;-93
2023/12/19 13:24:22;;;;;;;109.30;55.50;;;;;;;9.02;71.28;99952.83;130358;1264;107833;-90
2023/12/19 13:27:27;;;;;;;107.60;50.20;;;;;;;9.01;71.01;99946.30;130504;1264;108707;-89
2023/12/19 13:30:33;;;;;;;216.60;96.50;;;;;;;9.01;70.97;99935.89;130379;1266;108645;-92
2023/12/19 13:33:38;;;;;;;44.30;22.90;;;;;;;9.01;70.68;99929.17;130425;1260;108793;-90
2023/12/19 13:36:47;;;;;;;56.10;34.80;;;;;;;8.98;70.70;99930.48;130431;1261;108707;-90
2023/12/19 13:39:52;;;;;;;38.30;25.90;;;;;;;8.98;70.92;99923.21;130343;1261;108330;-91
2023/12/19 13:42:59;;;;;;;44.20;26.60;;;;;;;8.97;70.84;99909.48;130481;1264;106515;-90
2023/12/19 13:46:05;;;;;;;36.80;24.30;;;;;;;8.97;70.63;99912.88;130478;1261;107689;-90
2023/12/19 13:49:11;;;;;;;46.40;29.20;;;;;;;8.95;70.36;99904.42;130407;1261;107343;-91
2023/12/19 13:52:16;;;;;;;39.10;25.80;;;;;;;8.93;70.20;99906.20;130364;1260;107602;-90
2023/12/19 13:55:22;;;;;;;51.10;33.70;;;;;;;8.91;70.22;99910.47;130439;1261;107580;-89
2023/12/19 13:58:28;;;;;;;25.10;14.90;;;;;;;8.88;70.14;99909.51;130397;1261;108757;-88
2023/12/19 14:01:33;;;;;;;24.10;14.50;;;;;;;8.87;69.93;99902.87;130515;1261;108642;-90